x

Monterey - 27nm Wnw Of Monterey, Ca (46042) Wave Buoy

11:50pm - Tue 16th Sep 2014 All times are PDT. -7 hours from GMT.

  • Sig Wave height 3.3ft
  • Swell Direction
  • Peak Period 19s
  • Average Period 8s
  • Wind
    7mph, 9mph gusts
  • Sea Temp 64°f
  • Air Temp 63°f
  • Sea Pressure 1010.6mb
  • Monterey - 27nm Wnw Of Monterey, Ca
  • Monterey - 27nm Wnw Of Monterey, Ca

More Historic Weather Station data

Upgrade to MSW Pro to gain access to the past 30 days of data for over 8000 Wavebouys and Weather Stations around the globe.

Join Pro

Comparision Forecast

View Surf forecast
   
Tue 09/16 11:50pm 3.5ft 19s 8s 7 9 mph 1010.6mb 64f 63f
10:50pm 3.5ft 19s 8s 11
mph
1011mb 64f 63f
9:50pm 4.5ft 19s 8s 9
mph
1011.2mb 64f 64f
8:50pm 4ft 19s 7s 9 11 mph 1011mb 64f 64f
7:50pm 4ft 19s 7s 13 16 mph 1010.5mb 64f 64f
6:50pm 4.5ft 19s 9s 13 18 mph 1010.6mb 64f 64f
5:50pm 4.5ft 19s 8s 13 16 mph 1010.5mb 64f 64f
4:50pm 3.5ft 19s 6s 13 18 mph 1010.6mb 64f 64f
3:50pm 4ft 19s 7s 18 20 mph 1010.7mb 64f 64f
1:50pm 3.5ft 19s 8s 16 18 mph 1012mb 64f 64f
12:50pm 4ft 19s 10s 11 13 mph 1012.4mb 64f 63f
11:50am 3.5ft 19s 9s 9
mph
1013mb 64f 63f
10:50am 3.5ft 19s 8s 9 11 mph 1013.5mb 64f 63f
9:50am 3.5ft 21s 9s 11 13 mph 1013.5mb 63f 62f
8:50am 3ft 19s 9s 11 13 mph 1013.4mb 63f 62f
7:50am 3.5ft 21s 8s 9 11 mph 1013.4mb 63f 63f
6:50am 3ft 19s 8s 9 11 mph 1013.2mb 63f 62f
5:50am 3ft 21s 10s 11 16 mph 1013.1mb 63f 62f
4:50am 3.5ft 21s 13s 9 11 mph 1012.9mb 64f 63f
3:50am 3.5ft 21s 11s 7 9 mph 1013mb 64f 63f
2:50am 3.5ft 21s 11s 7 9 mph 1013.4mb 64f 63f
1:50am 3.5ft 21s 12s 7
mph
1013.8mb 64f 63f
12:50am 3ft 21s 10s 7
mph
1014.2mb 64f 63f
Mon 09/15 11:50pm 2.5ft 21s 9s 4 7 mph 1014.3mb 64f 63f
10:50pm 3ft 21s 10s 7
mph
1014.2mb 64f 64f
9:50pm 3ft 21s 10s 7 9 mph 1013.8mb 64f 64f
8:50pm 3.5ft 21s 10s 7 9 mph 1013.5mb 64f 64f
7:50pm 2.5ft 21s 8s 9 11 mph 1012.8mb 65f 64f
6:50pm 3ft 21s 8s 9 11 mph 1012.9mb 65f 64f
5:50pm 2.5ft 12s 8s 9 11 mph 1012.8mb 65f 65f
4:50pm 3ft 21s 8s 9 11 mph 1012.9mb 65f 65f
3:50pm 2.5ft 21s 8s 11 13 mph 1013mb 64f 64f
2:50pm 2.5ft 21s 7s 9 11 mph 1013.2mb 64f 64f
1:50pm 2.5ft 21s 7s 9 11 mph 1013.6mb 64f 63f
12:50pm 2.5ft 21s 8s 11
mph
1013.7mb 64f 62f
11:50am 2.5ft 21s 7s 7 9 mph 1013.9mb 64f 62f
10:50am 3ft 21s 8s 9 11 mph 1013.8mb 63f 62f
9:50am 3ft 21s 7s 9 11 mph 1013.7mb 63f 63f
8:50am 2.5ft 21s 7s 9 11 mph 1013.5mb 63f 63f
7:50am 2.5ft 21s 6s 11 13 mph 1013mb 63f 62f
6:50am 2.5ft 13s 6s 13 18 mph 1012.4mb 63f 63f
5:50am 2.5ft 24s 6s 11 13 mph 1011.9mb 63f 62f
4:50am 2.5ft 10s 6s 13 16 mph 1011.6mb 63f 62f
3:50am 2.5ft 10s 6s 11 13 mph 1011.3mb 63f 62f
2:50am 2.5ft 10s 6s 9 11 mph 1011.4mb 63f 62f
1:50am 2.5ft 11s 6s 11 13 mph 1011.4mb 63f 62f
12:50am 2.5ft 12s 5s 13 16 mph 1011.1mb 63f 62f
Sun 09/14 11:50pm 3ft 10s 6s 11 13 mph 1011.1mb 63f 62f
10:50pm 2.5ft 11s 5s 13
mph
1011.1mb 63f 62f
9:50pm 2.5ft 11s 5s 11 16 mph 1010.9mb 63f 62f
8:50pm 2.5ft 10s 5s 16 18 mph 1010.5mb 63f 62f
7:50pm 3ft 15s 5s 16 18 mph 1010mb 64f 63f
6:50pm 3ft 14s 5s 16 20 mph 1010mb 64f 63f
5:50pm 2.5ft 11s 5s 16 20 mph 1010.1mb 64f 63f
4:50pm 3ft 14s 5s 13 16 mph 1010.1mb 64f 62f
3:50pm 2.5ft 10s 5s 16 18 mph 1010.3mb 64f 62f
2:50pm 2.5ft 11s 5s 16 18 mph 1010.9mb 63f 62f
1:50pm 2.5ft 12s 6s 13 16 mph 1011.4mb 63f 62f
12:50pm 2.5ft 12s 6s 13 16 mph 1011.9mb 63f 62f
11:50am 2.5ft 14s 6s 13 16 mph 1012mb 63f 61f
10:50am 2.5ft 11s 6s 11 13 mph 1012.2mb 63f 61f
9:50am 2.5ft 12s 6s 9 11 mph 1012.2mb 62f 60f
8:50am 2.5ft 14s 6s 7 9 mph 1012mb 63f 60f
7:50am 2.5ft 12s 6s 11 16 mph 1010.8mb 63f 60f
6:50am 2.5ft 13s 7s 11 13 mph 1010.4mb 63f 60f
5:50am 3ft 13s 7s 9 11 mph 1010.5mb 63f 60f
4:50am 2.5ft 12s 7s 11 13 mph 1010.4mb 63f 60f
3:50am 2.5ft 14s 7s 9 13 mph 1010.7mb 63f 60f
2:50am 2.5ft 13s 7s 9 11 mph 1011mb 63f 60f
1:50am 2.5ft 12s 7s 7 9 mph 1010.9mb 63f 60f
12:50am 3ft 9s 7s 4 7 mph 1010.8mb 63f 60f
Sat 09/13 11:50pm 3.5ft 14s 6s 2 4 mph 1010.7mb 63f 60f
10:50pm 3ft 14s 6s 7 9 mph 1010.7mb 63f 60f
9:50pm 3ft 14s 6s 7 9 mph 1010.7mb 63f 61f
8:50pm 3ft 14s 6s 7 9 mph 1010.8mb 63f 61f
7:50pm 3.5ft 13s 6s 9 13 mph 1010.1mb 63f 61f
6:50pm 3ft 13s 5s 9 11 mph 1010.2mb 63f 61f
5:50pm 3ft 13s 5s 13 18 mph 1010.2mb 64f 61f
4:50pm 3.5ft 13s 6s 13 16 mph 1010.2mb 64f 62f
3:50pm 3.5ft 14s 6s 13 18 mph 1010.4mb 64f 61f
1:50pm 3ft 14s 8s 11 16 mph 1011mb 64f 61f
12:50pm 3ft 11s 8s 9 11 mph 1011.4mb 63f 61f
11:50am 3.5ft 13s 7s 7 9 mph 1011.5mb 63f 60f
10:50am 3.5ft 14s 7s 9 11 mph 1011.7mb 63f 60f
9:50am 3.5ft 8s 7s 7 9 mph 1011.7mb 63f 60f
8:50am 3.5ft 14s 7s 7 9 mph 1011.7mb 62f 60f